createdAt,value
2022-08-19T00:04:13.917Z,5.53
2022-08-19T00:09:19.340Z,5.20
2022-08-19T00:14:27.102Z,4.87
2022-08-19T00:19:30.856Z,4.90
2022-08-19T00:24:34.717Z,4.97
2022-08-19T00:29:38.537Z,4.05
2022-08-19T00:34:45.265Z,4.00
2022-08-19T00:39:49.162Z,4.38
2022-08-19T00:44:53.135Z,4.07
2022-08-19T00:49:59.975Z,4.53
2022-08-19T00:55:07.200Z,5.63
2022-08-19T01:00:14.901Z,5.47
2022-08-19T01:05:23.759Z,5.78
2022-08-19T01:10:36.090Z,6.15
2022-08-19T01:15:48.078Z,6.80
2022-08-19T01:20:52.484Z,6.03
2022-08-19T01:25:58.363Z,5.88
2022-08-19T01:31:07.107Z,6.10
2022-08-19T01:36:15.603Z,7.10
2022-08-19T01:41:19.736Z,6.78
2022-08-19T01:46:25.085Z,6.90
2022-08-19T01:51:28.932Z,6.72
2022-08-19T01:56:41.729Z,6.82
2022-08-19T02:01:45.930Z,8.07
2022-08-19T02:06:49.954Z,7.57
2022-08-19T02:11:53.268Z,7.18
2022-08-19T02:16:56.779Z,8.55
2022-08-19T02:22:01.629Z,7.95
2022-08-19T02:27:07.658Z,8.45
2022-08-19T02:32:10.778Z,7.70
2022-08-19T02:37:35.125Z,8.25
2022-08-19T02:42:39.499Z,8.02
2022-08-19T02:47:42.625Z,7.82
2022-08-19T02:52:48.456Z,9.73
2022-08-19T02:57:54.550Z,7.50
2022-08-19T03:02:58.015Z,7.75
2022-08-19T03:08:01.345Z,8.68
2022-08-19T03:13:04.958Z,7.85
2022-08-19T03:18:09.675Z,7.35
2022-08-19T03:23:14.499Z,7.60
2022-08-19T03:28:18.173Z,7.53
2022-08-19T03:33:28.528Z,7.47
2022-08-19T03:38:32.076Z,7.50
2022-08-19T03:43:41.163Z,7.05
2022-08-19T03:48:45.648Z,7.17
2022-08-19T03:53:51.419Z,8.70
2022-08-19T03:58:55.503Z,7.90
2022-08-19T04:04:00.633Z,7.70
2022-08-19T04:09:06.789Z,7.50
2022-08-19T04:14:12.541Z,7.85
2022-08-19T04:19:17.053Z,7.15
2022-08-19T04:24:21.109Z,7.18
2022-08-19T04:29:26.921Z,8.00
2022-08-19T04:34:31.402Z,7.80
2022-08-19T04:39:58.707Z,8.13
2022-08-19T04:45:14.669Z,8.18
2022-08-19T04:50:18.108Z,7.55
2022-08-19T04:55:21.420Z,8.35
2022-08-19T05:00:25.456Z,8.50
2022-08-19T05:05:28.664Z,8.27
2022-08-19T05:10:32.555Z,8.75
2022-08-19T05:15:36.625Z,8.85
2022-08-19T05:21:01.140Z,8.93
2022-08-19T05:26:05.327Z,8.38
2022-08-19T05:31:11.421Z,8.80
2022-08-19T05:36:15.904Z,9.18
2022-08-19T05:41:19.178Z,8.93
2022-08-19T05:46:28.141Z,9.50
2022-08-19T05:51:31.470Z,8.43
2022-08-19T05:56:38.402Z,8.13
2022-08-19T06:01:52.387Z,8.38
2022-08-19T06:06:56.194Z,9.68
2022-08-19T06:12:01.594Z,9.27
2022-08-19T06:17:07.046Z,9.20
2022-08-19T06:22:13.263Z,9.98
2022-08-19T06:27:17.813Z,10.00
2022-08-19T06:32:21.005Z,9.77
2022-08-19T06:37:24.482Z,10.57
2022-08-19T06:42:27.965Z,11.35
2022-08-19T06:47:31.485Z,10.38
2022-08-19T06:52:38.178Z,10.73
2022-08-19T06:57:41.711Z,10.40
2022-08-19T07:02:49.721Z,10.15
2022-08-19T07:08:04.631Z,10.98
2022-08-19T07:13:09.835Z,10.93
2022-08-19T07:18:12.932Z,12.30
2022-08-19T07:23:16.582Z,12.30
2022-08-19T07:28:24.280Z,13.35
2022-08-19T07:33:28.640Z,13.90
2022-08-19T07:38:35.257Z,14.63
2022-08-19T07:43:39.494Z,14.30
2022-08-19T07:48:44.780Z,15.63
2022-08-19T07:53:49.244Z,15.80
2022-08-19T08:04:21.324Z,15.70
2022-08-19T08:09:33.918Z,16.85
2022-08-19T08:14:45.609Z,16.45
2022-08-19T08:19:52.455Z,16.90
2022-08-19T08:24:55.588Z,16.23
2022-08-19T08:30:00.111Z,13.50
2022-08-19T08:40:31.348Z,14.30
2022-08-19T08:45:40.904Z,16.08
2022-08-19T08:50:52.282Z,16.58
2022-08-19T08:55:55.379Z,17.60
2022-08-19T09:00:59.520Z,17.90
2022-08-19T09:06:19.786Z,18.20
2022-08-19T09:11:44.621Z,18.88
2022-08-19T09:16:47.749Z,18.48
2022-08-19T09:21:52.185Z,19.48
2022-08-19T09:26:55.557Z,19.10
2022-08-19T09:32:01.010Z,19.33
2022-08-19T09:37:05.513Z,20.70
2022-08-19T09:42:16.645Z,19.02
2022-08-19T09:47:37.980Z,21.85
2022-08-19T09:52:57.233Z,20.10
2022-08-19T09:58:04.073Z,21.60
2022-08-19T10:03:08.654Z,20.58
2022-08-19T10:08:14.045Z,20.35
2022-08-19T10:13:20.453Z,20.42
2022-08-19T10:18:26.316Z,19.48
2022-08-19T10:23:33.782Z,20.02
2022-08-19T10:28:39.526Z,18.73
2022-08-19T10:33:53.608Z,18.70
2022-08-19T10:39:02.975Z,18.08
2022-08-19T10:44:09.660Z,18.85
2022-08-19T10:49:17.218Z,17.80
2022-08-19T10:54:29.529Z,18.83
2022-08-19T10:59:37.276Z,15.80
2022-08-19T11:04:42.690Z,13.35
2022-08-19T11:09:48.425Z,11.98
2022-08-19T11:14:51.710Z,11.10
2022-08-19T11:19:54.891Z,7.95
2022-08-19T11:24:58.222Z,8.55
2022-08-19T11:30:02.364Z,7.70
2022-08-19T11:35:10.763Z,5.90
2022-08-19T11:40:13.927Z,4.53
2022-08-19T11:45:18.518Z,3.25
2022-08-19T11:50:22.148Z,2.60
2022-08-19T11:55:25.694Z,2.13
2022-08-19T12:00:28.987Z,1.67
2022-08-19T12:05:32.609Z,2.08
2022-08-19T12:10:39.181Z,2.55
2022-08-19T12:15:43.372Z,2.30
2022-08-19T12:26:19.797Z,1.98
2022-08-19T12:37:15.595Z,1.60
2022-08-19T12:42:32.403Z,1.33
2022-08-19T12:48:33.656Z,1.20
2022-08-19T12:53:40.971Z,1.10
2022-08-19T12:59:01.680Z,1.00
2022-08-19T13:04:34.050Z,1.45
2022-08-19T13:09:49.757Z,1.63
2022-08-19T13:15:48.119Z,1.40
2022-08-19T13:21:32.086Z,1.20
2022-08-19T13:26:45.190Z,1.20
2022-08-19T13:32:07.480Z,1.67
2022-08-19T13:37:11.626Z,2.08
2022-08-19T13:42:15.992Z,2.20
2022-08-19T13:47:20.849Z,2.83
2022-08-19T13:52:24.531Z,2.30
2022-08-19T13:57:29.748Z,2.72
2022-08-19T14:03:12.471Z,2.65
2022-08-19T14:14:22.140Z,2.45
2022-08-19T14:26:35.669Z,2.05
2022-08-19T14:32:07.189Z,2.47
2022-08-19T14:44:35.476Z,2.20
2022-08-19T14:56:08.179Z,2.10
2022-08-19T15:07:53.459Z,2.40
2022-08-19T15:31:38.140Z,4.35
2022-08-19T15:36:43.033Z,5.60
2022-08-19T15:41:52.256Z,4.80
2022-08-19T15:46:58.478Z,5.20
2022-08-19T15:52:03.185Z,5.57
2022-08-19T15:57:25.633Z,5.45
2022-08-19T16:02:53.514Z,6.10
2022-08-19T16:07:58.505Z,5.68
2022-08-19T16:13:03.195Z,5.68
2022-08-19T16:18:07.313Z,5.10
2022-08-19T16:23:13.733Z,5.80
2022-08-19T16:28:21.814Z,5.30
2022-08-19T16:40:58.036Z,6.60
2022-08-19T17:03:54.752Z,7.63
2022-08-19T17:09:02.744Z,6.13
2022-08-19T17:14:07.669Z,6.63
2022-08-19T17:19:12.169Z,6.07
2022-08-19T17:24:17.153Z,5.80
2022-08-19T17:35:48.848Z,3.78
2022-08-19T17:42:10.313Z,3.20
2022-08-19T17:48:06.723Z,3.13
2022-08-19T18:05:35.442Z,2.00
2022-08-19T18:11:06.242Z,2.05
2022-08-19T18:16:24.837Z,1.70
2022-08-19T18:21:51.385Z,2.45
2022-08-19T18:28:05.197Z,2.17
2022-08-19T18:32:51.220Z,2.47
2022-08-19T18:38:47.085Z,2.50
2022-08-19T18:44:15.088Z,2.15
2022-08-19T18:55:00.979Z,2.88
2022-08-19T19:00:27.866Z,3.85
2022-08-19T19:06:01.038Z,4.40
2022-08-19T19:16:50.915Z,5.10
2022-08-19T19:22:09.821Z,6.20
2022-08-19T19:27:50.872Z,6.07
2022-08-19T19:32:57.392Z,6.70
2022-08-19T19:38:00.801Z,6.70
2022-08-19T19:43:07.065Z,6.47
2022-08-19T19:48:10.777Z,6.85
2022-08-19T19:53:15.922Z,7.10
2022-08-19T19:58:21.257Z,6.70
2022-08-19T20:03:32.754Z,6.93
2022-08-19T20:08:55.372Z,6.60
2022-08-19T20:14:01.961Z,6.78
2022-08-19T20:19:05.369Z,6.20
2022-08-19T20:24:10.484Z,6.22
2022-08-19T20:29:40.051Z,6.10
2022-08-19T20:34:41.145Z,5.88
2022-08-19T20:39:44.264Z,4.82
2022-08-19T20:44:47.546Z,5.78
2022-08-19T20:49:52.280Z,5.97
2022-08-19T20:54:55.386Z,6.43
2022-08-19T20:59:58.577Z,6.03
2022-08-19T21:05:06.095Z,6.35
2022-08-19T21:10:09.805Z,5.40
2022-08-19T21:15:13.633Z,5.95
2022-08-19T21:20:16.920Z,7.18
2022-08-19T21:25:20.521Z,7.30
2022-08-19T21:30:23.859Z,7.55
2022-08-19T21:35:26.965Z,7.70
2022-08-19T21:40:30.290Z,7.95
2022-08-19T21:45:34.952Z,5.47
2022-08-19T21:50:38.103Z,7.55
2022-08-19T21:55:42.534Z,7.10
2022-08-19T22:00:45.922Z,7.45
2022-08-19T22:05:49.105Z,7.85
2022-08-19T22:10:52.500Z,7.53
2022-08-19T22:15:56.122Z,8.18
2022-08-19T22:20:59.663Z,8.20
2022-08-19T22:26:03.104Z,8.82
2022-08-19T22:31:06.777Z,8.70
2022-08-19T22:36:12.557Z,9.57
2022-08-19T22:41:17.107Z,8.70
2022-08-19T22:46:21.112Z,8.57
2022-08-19T22:51:43.169Z,10.05
2022-08-19T22:56:46.707Z,10.32
2022-08-19T23:01:50.081Z,10.20
2022-08-19T23:06:53.655Z,10.10
2022-08-19T23:11:57.119Z,9.90
2022-08-19T23:17:02.259Z,11.10
2022-08-19T23:22:06.007Z,10.15
2022-08-19T23:27:28.096Z,10.05
2022-08-19T23:32:36.011Z,9.27
2022-08-19T23:37:40.079Z,11.35
2022-08-19T23:42:47.336Z,11.60
2022-08-19T23:47:50.531Z,11.23
2022-08-19T23:52:56.488Z,11.65
2022-08-19T23:58:03.581Z,10.18
